Time;durP1;ratioP1;P1;durP2;ratioP2;P2;SDS_P1;SDS_P2;PMS_P1;PMS_P2;Temp;Humidity;BMP_temperature;BMP_pressure;BME280_temperature;BME280_humidity;BME280_pressure;Samples;Min_cycle;Max_cycle;Signal;HPM_P1;HPM_P2
2023/08/30 00:01:54;;;;;;;0.43;0.43;;;12.90;99.90;;;;;;5134693;27;20122;-61
2023/08/30 00:04:22;;;;;;;0.45;0.45;;;13.10;99.90;;;;;;5134625;27;20199;-64
2023/08/30 00:06:48;;;;;;;0.88;0.88;;;12.40;99.90;;;;;;5134383;27;20399;-62
2023/08/30 00:09:14;;;;;;;;;;;12.80;99.90;;;;;;5134340;27;20414;-62
2023/08/30 00:11:39;;;;;;;1.60;1.50;;;12.50;99.90;;;;;;5134823;27;19919;-62
2023/08/30 00:14:07;;;;;;;1.17;1.08;;;12.30;99.90;;;;;;5134758;27;20046;-62
2023/08/30 00:16:33;;;;;;;1.30;1.15;;;12.50;99.90;;;;;;5134753;27;20372;-62
2023/08/30 00:19:00;;;;;;;1.67;0.73;;;12.50;99.90;;;;;;5116410;27;20459;-62
2023/08/30 00:21:27;;;;;;;1.95;1.48;;;12.70;99.90;;;;;;5134586;27;20051;-62
2023/08/30 00:23:52;;;;;;;1.55;0.98;;;12.60;99.90;;;;;;5134527;27;20105;-62
2023/08/30 00:26:18;;;;;;;1.13;0.98;;;12.60;99.90;;;;;;5134673;27;20519;-62
2023/08/30 00:28:44;;;;;;;0.50;0.50;;;12.50;99.90;;;;;;5134754;27;20054;-62
2023/08/30 00:31:09;;;;;;;0.73;0.73;;;12.80;99.90;;;;;;5134701;27;20126;-62
2023/08/30 00:33:35;;;;;;;0.45;0.45;;;12.40;99.90;;;;;;5134527;27;20043;-62
2023/08/30 00:36:01;;;;;;;2.63;0.88;;;12.60;99.90;;;;;;5134461;27;20050;-62
2023/08/30 00:38:28;;;;;;;1.73;1.15;;;13.00;99.90;;;;;;5134348;27;20104;-64
2023/08/30 00:40:53;;;;;;;0.73;0.45;;;12.40;99.90;;;;;;5134284;27;20126;-62
2023/08/30 00:43:20;;;;;;;0.32;0.32;;;12.60;99.90;;;;;;5134203;27;20146;-62
2023/08/30 00:45:47;;;;;;;0.90;0.70;;;13.10;99.90;;;;;;5134173;27;20049;-62
2023/08/30 00:48:13;;;;;;;0.52;0.52;;;13.00;99.90;;;;;;5134143;27;20647;-64
2023/08/30 00:50:39;;;;;;;;;;;12.80;99.90;;;;;;5134507;27;20051;-62
2023/08/30 00:53:06;;;;;;;0.50;0.50;;;13.30;99.90;;;;;;5133951;27;19969;-62
2023/08/30 00:55:34;;;;;;;1.38;1.10;;;13.10;99.90;;;;;;5115493;27;20063;-62
2023/08/30 00:58:01;;;;;;;1.98;0.38;;;13.20;99.90;;;;;;5133590;27;20486;-62
2023/08/30 01:00:28;;;;;;;1.70;1.00;;;12.90;99.90;;;;;;5134021;27;20468;-62
2023/08/30 01:02:55;;;;;;;0.77;0.77;;;13.10;99.90;;;;;;5134148;27;20054;-63
2023/08/30 01:05:21;;;;;;;0.68;0.68;;;13.00;99.90;;;;;;5134140;27;20043;-61
2023/08/30 01:07:48;;;;;;;0.68;0.68;;;12.90;99.90;;;;;;5133987;27;20043;-62
2023/08/30 01:10:14;;;;;;;1.10;1.05;;;13.20;99.90;;;;;;5133760;27;20507;-62
2023/08/30 01:12:47;;;;;;;1.20;1.10;;;13.50;99.90;;;;;;5133596;27;20138;-62
2023/08/30 01:15:18;;;;;;;0.82;0.80;;;13.00;99.90;;;;;;5133735;27;20086;-62
2023/08/30 01:17:44;;;;;;;0.50;0.50;;;13.00;99.90;;;;;;5133602;27;20134;-62
2023/08/30 01:20:14;;;;;;;;;;;13.10;99.90;;;;;;5132859;27;20055;-62
2023/08/30 01:23:04;;;;;;;0.60;0.60;;;13.00;99.90;;;;;;5133418;27;19927;-64
2023/08/30 01:25:49;;;;;;;0.40;0.40;;;13.50;99.90;;;;;;5133428;27;20051;-64
2023/08/30 01:28:19;;;;;;;4.28;0.75;;;13.20;99.90;;;;;;5133435;27;20067;-64
2023/08/30 01:30:45;;;;;;;1.08;1.00;;;13.50;99.90;;;;;;5133520;27;20059;-63
2023/08/30 01:33:14;;;;;;;1.30;0.85;;;13.40;99.90;;;;;;5133278;27;20047;-61
2023/08/30 01:35:41;;;;;;;1.15;0.80;;;13.20;99.90;;;;;;5132803;27;20525;-62
2023/08/30 01:38:07;;;;;;;1.20;1.10;;;13.40;99.90;;;;;;5133058;27;20051;-62
2023/08/30 01:40:39;;;;;;;0.80;0.80;;;13.10;99.90;;;;;;5133065;27;20043;-62
2023/08/30 01:43:07;;;;;;;0.47;0.47;;;13.60;99.90;;;;;;5133417;27;20047;-61
2023/08/30 01:45:40;;;;;;;1.65;1.20;;;13.30;99.90;;;;;;5132976;27;20055;-63
2023/08/30 01:48:09;;;;;;;0.73;0.73;;;13.60;99.90;;;;;;5133364;27;20054;-62
2023/08/30 01:50:35;;;;;;;0.95;0.70;;;13.50;99.90;;;;;;5132960;27;20047;-62
2023/08/30 01:53:02;;;;;;;0.52;0.52;;;13.40;99.90;;;;;;5132966;27;20043;-63
2023/08/30 01:55:29;;;;;;;0.68;0.60;;;13.30;99.90;;;;;;5114561;27;20099;-62
2023/08/30 01:57:55;;;;;;;0.70;0.70;;;13.40;99.90;;;;;;5132672;27;20047;-62
2023/08/30 02:00:20;;;;;;;0.50;0.50;;;13.40;99.90;;;;;;5132834;27;20049;-63
2023/08/30 02:02:48;;;;;;;0.55;0.55;;;13.60;99.90;;;;;;5132748;27;20194;-62
2023/08/30 02:05:13;;;;;;;1.00;0.90;;;13.90;99.90;;;;;;5132606;27;20436;-62
2023/08/30 02:07:56;;;;;;;1.63;0.32;;;13.40;99.90;;;;;;5132679;27;20122;-62
2023/08/30 02:10:33;;;;;;;0.40;0.30;;;13.40;99.90;;;;;;5132710;27;20084;-63
2023/08/30 02:13:00;;;;;;;0.63;0.60;;;13.60;99.90;;;;;;5132633;27;20050;-61
2023/08/30 02:15:26;;;;;;;1.80;0.63;;;13.50;99.90;;;;;;5132660;27;20188;-61
2023/08/30 02:17:53;;;;;;;0.68;0.68;;;13.40;99.90;;;;;;5132591;27;20043;-61
2023/08/30 02:20:19;;;;;;;0.20;0.20;;;13.60;99.90;;;;;;5132598;27;20138;-62
2023/08/30 02:22:45;;;;;;;;;;;13.60;99.90;;;;;;5133305;28;20079;-62
2023/08/30 02:25:10;;;;;;;0.77;0.75;;;13.70;99.90;;;;;;5132511;28;20019;-61
2023/08/30 02:27:36;;;;;;;0.55;0.55;;;13.20;99.90;;;;;;5132549;28;20039;-62
2023/08/30 02:30:02;;;;;;;;;;;13.50;99.90;;;;;;5132765;28;20528;-64
2023/08/30 02:32:28;;;;;;;0.60;0.60;;;13.20;99.90;;;;;;5116873;27;19923;-65
2023/08/30 02:34:55;;;;;;;0.57;0.57;;;13.20;99.90;;;;;;5136714;27;20035;-62
2023/08/30 02:37:21;;;;;;;0.40;0.40;;;13.40;99.90;;;;;;5136637;27;20050;-61
2023/08/30 02:39:47;;;;;;;0.30;0.30;;;13.20;99.90;;;;;;5136562;27;20051;-63
2023/08/30 02:42:13;;;;;;;0.63;0.63;;;13.20;99.90;;;;;;5136654;27;20090;-64
2023/08/30 02:44:38;;;;;;;;;;;13.20;99.90;;;;;;5136870;27;20043;-62
2023/08/30 02:47:04;;;;;;;0.80;0.63;;;13.40;99.90;;;;;;5136402;27;19930;-63
2023/08/30 02:49:30;;;;;;;1.10;1.00;;;12.90;99.90;;;;;;5136401;27;20047;-62
2023/08/30 02:51:56;;;;;;;1.15;1.02;;;12.80;99.90;;;;;;5136397;27;20082;-62
2023/08/30 02:54:22;;;;;;;1.20;1.05;;;12.80;99.90;;;;;;5118201;27;20073;-61
2023/08/30 02:56:48;;;;;;;1.20;1.17;;;12.90;99.90;;;;;;5136213;27;20109;-62
2023/08/30 02:59:14;;;;;;;0.88;0.68;;;13.00;99.90;;;;;;5136229;27;20057;-61
2023/08/30 03:01:40;;;;;;;;;;;12.70;99.90;;;;;;5136209;27;20082;-62
2023/08/30 03:04:07;;;;;;;0.85;0.60;;;12.80;99.90;;;;;;5135698;27;19970;-63
2023/08/30 03:06:33;;;;;;;0.93;0.90;;;12.80;99.90;;;;;;5135299;27;20558;-61
2023/08/30 03:08:59;;;;;;;0.43;0.43;;;13.10;99.90;;;;;;5135936;27;20063;-62
2023/08/30 03:11:24;;;;;;;0.50;0.50;;;12.60;99.90;;;;;;5136046;27;20047;-62
2023/08/30 03:13:50;;;;;;;1.98;0.50;;;12.70;99.90;;;;;;5136054;27;20240;-61
2023/08/30 03:16:16;;;;;;;1.30;1.08;;;12.90;99.90;;;;;;5117742;27;20047;-62
2023/08/30 03:18:43;;;;;;;0.40;0.40;;;12.60;99.90;;;;;;5136161;27;20399;-62
2023/08/30 03:21:09;;;;;;;0.55;0.40;;;12.70;99.90;;;;;;5136229;27;20081;-62
2023/08/30 03:23:36;;;;;;;0.40;0.40;;;12.50;99.90;;;;;;5135945;27;20039;-62
2023/08/30 03:26:09;;;;;;;0.30;0.30;;;12.40;99.90;;;;;;5135744;27;20043;-62
2023/08/30 03:28:35;;;;;;;1.70;1.23;;;12.20;99.90;;;;;;5135690;27;20043;-62
2023/08/30 03:31:01;;;;;;;0.80;0.80;;;12.40;99.90;;;;;;5135702;27;20079;-62
2023/08/30 03:33:27;;;;;;;0.57;0.57;;;12.50;99.90;;;;;;5135632;27;20473;-63
2023/08/30 03:35:52;;;;;;;1.08;0.52;;;12.30;99.90;;;;;;5135882;27;20047;-62
2023/08/30 03:38:18;;;;;;;0.57;0.57;;;12.50;99.90;;;;;;5135840;27;20066;-61
2023/08/30 03:40:44;;;;;;;0.77;0.75;;;12.20;99.90;;;;;;5135557;27;20045;-63
2023/08/30 03:43:10;;;;;;;0.60;0.60;;;12.00;99.90;;;;;;5134369;27;20499;-62
2023/08/30 03:45:36;;;;;;;0.47;0.47;;;12.20;99.90;;;;;;5135283;27;20039;-61
2023/08/30 03:48:03;;;;;;;1.58;1.45;;;12.60;99.90;;;;;;5135270;27;20099;-61
2023/08/30 03:50:29;;;;;;;0.55;0.55;;;12.00;99.90;;;;;;5135127;27;20084;-63
2023/08/30 03:52:54;;;;;;;0.60;0.60;;;11.90;99.90;;;;;;5134818;27;20039;-62
2023/08/30 03:55:21;;;;;;;0.65;0.65;;;11.90;99.90;;;;;;5116756;27;20125;-62
2023/08/30 03:57:46;;;;;;;0.60;0.60;;;12.00;99.90;;;;;;5135063;27;20065;-61
2023/08/30 04:00:12;;;;;;;1.60;1.50;;;12.20;99.90;;;;;;5135074;27;20546;-61
2023/08/30 04:02:38;;;;;;;0.60;0.60;;;11.80;99.90;;;;;;5135138;27;20053;-62
2023/08/30 04:05:08;;;;;;;1.27;1.13;;;11.80;99.90;;;;;;5134749;27;20558;-64
2023/08/30 04:07:36;;;;;;;3.47;1.13;;;12.00;99.90;;;;;;5134994;27;20096;-62
2023/08/30 04:10:06;;;;;;;0.43;0.43;;;11.50;99.90;;;;;;5134925;27;20067;-61
2023/08/30 04:12:31;;;;;;;0.70;0.70;;;12.00;99.90;;;;;;5134855;27;20051;-62
2023/08/30 04:14:57;;;;;;;0.65;0.65;;;11.90;99.90;;;;;;5134809;27;20043;-62
2023/08/30 04:17:23;;;;;;;0.77;0.77;;;12.00;99.90;;;;;;5134954;27;20065;-62
2023/08/30 04:19:52;;;;;;;2.63;0.95;;;12.00;99.90;;;;;;5116508;27;20049;-61
2023/08/30 04:22:18;;;;;;;1.08;1.02;;;11.80;99.90;;;;;;5134696;27;20039;-62
2023/08/30 04:24:43;;;;;;;0.88;0.88;;;12.00;99.90;;;;;;5134578;27;20043;-61
2023/08/30 04:27:09;;;;;;;1.17;1.10;;;11.80;99.90;;;;;;5116325;27;20148;-61
2023/08/30 04:29:34;;;;;;;1.02;0.90;;;11.90;99.90;;;;;;5134597;27;20483;-62
2023/08/30 04:32:00;;;;;;;0.88;0.82;;;11.90;99.90;;;;;;5134651;27;20526;-62
2023/08/30 04:34:26;;;;;;;1.40;1.30;;;11.80;99.90;;;;;;5134451;27;20400;-62
2023/08/30 04:36:52;;;;;;;0.90;0.60;;;11.90;99.90;;;;;;5134399;27;20391;-62
2023/08/30 04:39:17;;;;;;;1.00;0.93;;;12.20;99.90;;;;;;5134329;27;20078;-62
2023/08/30 04:41:43;;;;;;;0.73;0.73;;;12.30;99.90;;;;;;5133904;27;20035;-62
2023/08/30 04:44:09;;;;;;;0.82;0.82;;;12.40;99.90;;;;;;5115780;27;20111;-61
2023/08/30 04:46:34;;;;;;;2.08;1.40;;;12.20;99.90;;;;;;5134187;27;20510;-63
2023/08/30 04:49:01;;;;;;;3.03;1.85;;;12.10;99.90;;;;;;5134108;27;20043;-62
2023/08/30 04:51:26;;;;;;;2.75;1.92;;;12.60;99.90;;;;;;5134168;27;20055;-62
2023/08/30 04:53:52;;;;;;;0.80;0.52;;;12.40;99.90;;;;;;5134080;27;20051;-64
2023/08/30 04:56:18;;;;;;;4.53;1.05;;;12.20;99.90;;;;;;5134023;27;20340;-61
2023/08/30 04:58:44;;;;;;;0.73;0.73;;;12.90;99.90;;;;;;5133874;27;20043;-61
2023/08/30 05:01:11;;;;;;;1.08;0.80;;;12.90;99.90;;;;;;5133790;27;20390;-60
2023/08/30 05:03:36;;;;;;;0.85;0.85;;;12.50;99.90;;;;;;5133394;27;20634;-60
2023/08/30 05:06:02;;;;;;;0.63;0.63;;;12.60;99.90;;;;;;5133857;27;20059;-62
2023/08/30 05:08:28;;;;;;;1.35;0.95;;;12.70;99.90;;;;;;5133539;27;20073;-61
2023/08/30 05:10:54;;;;;;;2.83;1.38;;;12.80;99.90;;;;;;5133591;27;20054;-61
2023/08/30 05:13:20;;;;;;;0.43;0.43;;;12.70;99.90;;;;;;5133678;27;20444;-62
2023/08/30 05:15:46;;;;;;;0.40;0.40;;;12.80;99.90;;;;;;5133621;27;20100;-62
2023/08/30 05:18:11;;;;;;;1.23;1.15;;;12.30;99.90;;;;;;5133501;27;20494;-61
2023/08/30 05:20:37;;;;;;;0.85;0.60;;;12.50;99.90;;;;;;5133513;27;20101;-61
2023/08/30 05:23:03;;;;;;;0.93;0.65;;;12.80;99.90;;;;;;5133431;27;20051;-61
2023/08/30 05:25:28;;;;;;;0.77;0.60;;;12.70;99.90;;;;;;5133422;27;20050;-62
2023/08/30 05:27:54;;;;;;;0.25;0.25;;;12.50;99.90;;;;;;5133393;27;20376;-62
2023/08/30 05:30:20;;;;;;;0.73;0.73;;;12.70;99.90;;;;;;5133403;27;20379;-63
2023/08/30 05:32:46;;;;;;;0.30;0.30;;;13.00;99.90;;;;;;5133290;27;20051;-62
2023/08/30 05:35:11;;;;;;;0.40;0.40;;;13.20;99.90;;;;;;5133130;27;20095;-61
2023/08/30 05:37:37;;;;;;;0.65;0.65;;;12.80;99.90;;;;;;5133359;27;20512;-62
2023/08/30 05:40:03;;;;;;;2.83;2.58;;;12.90;99.90;;;;;;5133531;27;20051;-61
2023/08/30 05:42:29;;;;;;;1.38;0.90;;;13.30;99.90;;;;;;5133122;27;20051;-62
2023/08/30 05:44:55;;;;;;;0.55;0.40;;;13.00;99.90;;;;;;5133090;27;20485;-62
2023/08/30 05:47:21;;;;;;;0.75;0.75;;;13.10;99.90;;;;;;5114593;27;20046;-62
2023/08/30 05:49:47;;;;;;;0.40;0.40;;;12.80;99.90;;;;;;5133021;27;20046;-61
2023/08/30 05:52:15;;;;;;;;;;;12.90;99.90;;;;;;5133344;27;20083;-61
2023/08/30 05:54:42;;;;;;;0.52;0.52;;;12.80;99.90;;;;;;5133013;27;20359;-62
2023/08/30 05:57:08;;;;;;;2.55;0.85;;;12.90;99.90;;;;;;5132942;27;20086;-61
2023/08/30 05:59:35;;;;;;;2.13;1.13;;;13.00;99.90;;;;;;5132818;27;20107;-61
2023/08/30 06:02:01;;;;;;;0.47;0.47;;;13.00;99.90;;;;;;5132742;27;20057;-62
2023/08/30 06:04:26;;;;;;;;;;;13.20;99.90;;;;;;5133139;27;20050;-62
2023/08/30 06:06:52;;;;;;;0.47;0.47;;;13.00;99.90;;;;;;5132512;27;20290;-61
2023/08/30 06:09:17;;;;;;;0.40;0.40;;;13.40;99.90;;;;;;5114077;27;20047;-61
2023/08/30 06:11:43;;;;;;;1.63;0.85;;;13.00;99.90;;;;;;5132804;27;20047;-60
2023/08/30 06:14:09;;;;;;;2.08;1.27;;;13.30;99.90;;;;;;5132812;27;20051;-60
2023/08/30 06:16:34;;;;;;;2.17;1.05;;;13.10;99.90;;;;;;5132693;27;20043;-60
2023/08/30 06:19:00;;;;;;;1.17;1.08;;;13.20;99.90;;;;;;5148409;27;20637;-63
2023/08/30 06:21:26;;;;;;;0.70;0.70;;;13.50;99.90;;;;;;5148114;27;20081;-63
2023/08/30 06:23:51;;;;;;;0.68;0.68;;;13.20;99.90;;;;;;5150534;27;20479;-62
2023/08/30 06:26:18;;;;;;;1.45;1.30;;;13.30;99.90;;;;;;5151712;27;20103;-63
2023/08/30 06:28:44;;;;;;;0.63;0.45;;;13.20;99.90;;;;;;5152520;27;20119;-61
2023/08/30 06:31:10;;;;;;;0.60;0.60;;;13.20;99.90;;;;;;5152239;27;20409;-61
2023/08/30 06:33:36;;;;;;;0.50;0.50;;;13.10;99.90;;;;;;5152586;27;20059;-61
2023/08/30 06:36:02;;;;;;;1.25;0.95;;;13.60;99.90;;;;;;5151912;27;20054;-61
2023/08/30 06:38:28;;;;;;;1.98;1.00;;;13.40;99.90;;;;;;5134706;27;20053;-61
2023/08/30 06:40:54;;;;;;;1.25;1.25;;;13.40;99.90;;;;;;5152698;27;20051;-63
2023/08/30 06:43:19;;;;;;;1.50;1.25;;;13.20;99.90;;;;;;5147660;27;20118;-61
2023/08/30 06:45:46;;;;;;;1.50;1.40;;;13.50;99.90;;;;;;5153133;27;20632;-61
2023/08/30 06:48:12;;;;;;;1.33;1.23;;;13.10;99.90;;;;;;5152695;27;20402;-61
2023/08/30 06:50:38;;;;;;;0.57;0.57;;;13.30;99.90;;;;;;5152302;27;20042;-64
2023/08/30 06:53:04;;;;;;;1.17;1.15;;;13.40;99.90;;;;;;5149995;27;20053;-62
2023/08/30 06:55:29;;;;;;;;;;;13.70;99.90;;;;;;5152609;27;20417;-61
2023/08/30 06:57:55;;;;;;;8.00;1.70;;;13.70;99.90;;;;;;5152805;27;19919;-61
2023/08/30 07:00:21;;;;;;;;;;;13.50;99.90;;;;;;5153216;27;20042;-61
2023/08/30 07:02:46;;;;;;;1.30;0.95;;;13.40;99.90;;;;;;5152693;27;20323;-61
2023/08/30 07:05:12;;;;;;;;;;;13.70;99.90;;;;;;5153223;27;20130;-62
2023/08/30 07:07:39;;;;;;;2.03;1.08;;;13.50;99.90;;;;;;5152812;27;19919;-60
2023/08/30 07:10:05;;;;;;;0.93;0.88;;;13.70;99.90;;;;;;5152337;27;20055;-61
2023/08/30 07:12:31;;;;;;;1.33;1.23;;;14.10;99.90;;;;;;5152749;27;20080;-61
2023/08/30 07:14:56;;;;;;;2.20;1.25;;;13.80;99.90;;;;;;5152726;27;20047;-62
2023/08/30 07:17:22;;;;;;;1.15;1.02;;;14.20;99.90;;;;;;5153279;27;20054;-63
2023/08/30 07:19:49;;;;;;;0.60;0.40;;;13.90;99.90;;;;;;5149915;27;20043;-63
2023/08/30 07:22:16;;;;;;;1.77;1.05;;;14.00;99.90;;;;;;5155395;27;20047;-62
2023/08/30 07:24:43;;;;;;;3.30;1.27;;;14.20;99.90;;;;;;5155488;27;20504;-62
2023/08/30 07:27:09;;;;;;;1.23;1.17;;;14.30;99.90;;;;;;5154348;27;20408;-61
2023/08/30 07:29:35;;;;;;;0.98;0.98;;;14.80;99.90;;;;;;5156165;27;20051;-62
2023/08/30 07:32:00;;;;;;;;;;;15.00;99.90;;;;;;5138452;27;20069;-63
2023/08/30 07:34:26;;;;;;;1.77;0.43;;;14.40;99.90;;;;;;5156203;27;19996;-62
2023/08/30 07:36:53;;;;;;;;;;;14.90;99.90;;;;;;5156694;27;20042;-62
2023/08/30 07:39:19;;;;;;;1.40;1.27;;;15.20;99.90;;;;;;5156145;27;19923;-63
2023/08/30 07:41:44;;;;;;;;;;;15.00;99.90;;;;;;5156499;27;20390;-62
2023/08/30 07:44:10;;;;;;;0.63;0.57;;;14.80;99.90;;;;;;5156114;27;19919;-61
2023/08/30 07:46:36;;;;;;;1.02;1.02;;;15.10;99.90;;;;;;5156207;27;20099;-62
2023/08/30 07:49:02;;;;;;;;;;;15.20;99.90;;;;;;5156558;27;20089;-62
2023/08/30 07:51:28;;;;;;;0.77;0.77;;;15.50;99.90;;;;;;5155960;27;19930;-61
2023/08/30 07:53:53;;;;;;;1.02;0.82;;;15.60;99.90;;;;;;5155930;27;20039;-62
2023/08/30 07:56:19;;;;;;;;;;;15.70;99.90;;;;;;5156006;27;20038;-61
2023/08/30 07:58:45;;;;;;;0.70;0.70;;;15.40;99.90;;;;;;5155922;27;19919;-62
2023/08/30 08:01:10;;;;;;;;;;;15.70;99.90;;;;;;5137655;27;20042;-61
2023/08/30 08:03:36;;;;;;;1.77;0.50;;;15.80;99.90;;;;;;5155907;27;19962;-62
2023/08/30 08:06:01;;;;;;;;;;;15.60;99.90;;;;;;5156339;27;20462;-62
2023/08/30 08:08:27;;;;;;;0.73;0.73;;;15.40;99.90;;;;;;5155526;27;19974;-63
2023/08/30 08:10:53;;;;;;;;;;;15.60;99.90;;;;;;5155966;27;20050;-62
2023/08/30 08:13:18;;;;;;;0.70;0.70;;;15.70;99.90;;;;;;5155591;27;19961;-62
2023/08/30 08:15:44;;;;;;;;;;;15.40;99.90;;;;;;5155980;27;20060;-61
2023/08/30 08:18:10;;;;;;;2.72;1.17;;;15.60;99.90;;;;;;5155381;27;19958;-62
2023/08/30 08:20:36;;;;;;;;;;;15.60;99.90;;;;;;5155804;27;20054;-61
2023/08/30 08:23:03;;;;;;;0.77;0.73;;;15.80;99.90;;;;;;5155337;27;19963;-61
2023/08/30 08:25:29;;;;;;;1.05;1.00;;;15.60;99.90;;;;;;5155251;27;20055;-62
2023/08/30 08:27:54;;;;;;;;;;;16.30;99.90;;;;;;5155754;27;20043;-61
2023/08/30 08:30:20;;;;;;;1.73;1.45;;;15.90;99.90;;;;;;5154589;27;19923;-63
2023/08/30 08:32:49;;;;;;;0.50;0.50;;;15.60;99.90;;;;;;5155215;27;20106;-62
2023/08/30 08:35:15;;;;;;;1.60;0.63;;;15.80;99.90;;;;;;5155042;27;20052;-62
2023/08/30 08:37:41;;;;;;;;;;;15.60;99.90;;;;;;5155548;27;20151;-61
2023/08/30 08:40:10;;;;;;;0.40;0.40;;;15.90;99.90;;;;;;5154971;27;19960;-61
2023/08/30 08:42:37;;;;;;;3.05;1.52;;;16.10;99.90;;;;;;5155124;27;20049;-61
2023/08/30 08:45:04;;;;;;;1.10;0.90;;;15.40;99.90;;;;;;5154913;27;20677;-61
2023/08/30 08:47:30;;;;;;;1.30;1.20;;;15.70;99.90;;;;;;5154848;27;20535;-63
2023/08/30 08:49:56;;;;;;;0.55;0.55;;;16.10;99.90;;;;;;5154797;27;20122;-62
2023/08/30 08:52:24;;;;;;;;;;;16.20;99.90;;;;;;5155298;27;20488;-61
2023/08/30 08:54:50;;;;;;;0.57;0.57;;;16.00;99.90;;;;;;5154731;27;19967;-61
2023/08/30 08:57:17;;;;;;;0.80;0.77;;;16.10;99.90;;;;;;5154425;27;20564;-63
2023/08/30 08:59:43;;;;;;;0.60;0.55;;;16.60;99.90;;;;;;5136088;27;20167;-61
2023/08/30 09:02:11;;;;;;;0.40;0.40;;;16.80;99.90;;;;;;5154667;27;20046;-62
2023/08/30 09:04:38;;;;;;;1.08;1.08;;;16.50;99.90;;;;;;5154459;27;20398;-61
2023/08/30 09:07:04;;;;;;;0.95;0.75;;;16.90;99.90;;;;;;5154513;27;20476;-61
2023/08/30 09:09:30;;;;;;;1.08;0.95;;;16.50;99.90;;;;;;5154395;27;20090;-61
2023/08/30 09:11:56;;;;;;;;;;;16.40;99.90;;;;;;5154835;27;20050;-63
2023/08/30 09:14:21;;;;;;;6.18;0.77;;;17.60;99.90;;;;;;5154146;27;19922;-62
2023/08/30 09:16:57;;;;;;;;;;;17.00;99.90;;;;;;5154850;27;20049;-62
2023/08/30 09:19:23;;;;;;;0.52;0.50;;;16.60;99.90;;;;;;5154360;27;20042;-61
2023/08/30 09:21:52;;;;;;;;;;;16.80;99.90;;;;;;5155027;27;20092;-62
2023/08/30 09:24:18;;;;;;;1.05;0.82;;;16.90;99.90;;;;;;5154192;27;20014;-63
2023/08/30 09:26:52;;;;;;;0.73;0.70;;;16.90;99.90;;;;;;5154221;27;20121;-62
2023/08/30 09:29:19;;;;;;;0.82;0.82;;;16.90;99.90;;;;;;5135574;27;20394;-62
2023/08/30 09:31:44;;;;;;;0.85;0.73;;;17.00;99.90;;;;;;5154315;27;20100;-63
2023/08/30 09:34:11;;;;;;;1.65;0.85;;;17.00;99.90;;;;;;5154317;27;20042;-61
2023/08/30 09:36:41;;;;;;;0.85;0.82;;;17.20;99.90;;;;;;5154259;27;20099;-61
2023/08/30 09:39:12;;;;;;;1.23;1.13;;;17.10;99.90;;;;;;5154016;27;20049;-61
2023/08/30 09:41:42;;;;;;;0.70;0.70;;;17.50;99.90;;;;;;5153037;27;20051;-63
2023/08/30 09:44:19;;;;;;;0.98;0.90;;;17.40;99.90;;;;;;5153807;27;20118;-62
2023/08/30 09:46:52;;;;;;;1.35;1.25;;;17.20;99.90;;;;;;5153910;27;20103;-61
2023/08/30 09:49:22;;;;;;;0.98;0.80;;;17.30;99.90;;;;;;5153786;27;20125;-63
2023/08/30 09:51:49;;;;;;;1.25;1.15;;;17.10;99.90;;;;;;5152496;27;20050;-68
2023/08/30 09:54:23;;;;;;;1.40;1.30;;;16.70;99.90;;;;;;5150676;27;20039;-61
2023/08/30 09:56:52;;;;;;;1.75;0.63;;;16.90;99.90;;;;;;5135222;27;20047;-62
2023/08/30 09:59:18;;;;;;;1.42;0.80;;;16.70;99.90;;;;;;5153680;27;20053;-61
2023/08/30 10:01:46;;;;;;;0.82;0.60;;;16.90;99.90;;;;;;5153613;27;20462;-63
2023/08/30 10:04:12;;;;;;;0.88;0.60;;;17.20;99.90;;;;;;5153491;27;20041;-62
2023/08/30 10:06:38;;;;;;;0.50;0.50;;;17.10;99.90;;;;;;5153549;27;20039;-62
2023/08/30 10:09:05;;;;;;;1.17;0.57;;;16.80;99.90;;;;;;5153223;27;20069;-62
2023/08/30 10:11:36;;;;;;;0.40;0.40;;;16.60;99.90;;;;;;5153448;27;20047;-62
2023/08/30 10:14:05;;;;;;;0.32;0.32;;;17.00;99.90;;;;;;5153366;27;20039;-61
2023/08/30 10:16:50;;;;;;;0.73;0.73;;;16.90;99.90;;;;;;5135208;27;20050;-62
2023/08/30 10:19:23;;;;;;;1.77;1.05;;;16.70;99.90;;;;;;5153673;27;20130;-62
2023/08/30 10:22:00;;;;;;;0.70;0.70;;;17.20;99.90;;;;;;5153667;27;20133;-62
2023/08/30 10:24:28;;;;;;;0.38;0.38;;;17.20;99.90;;;;;;5153360;27;20545;-62
2023/08/30 10:26:56;;;;;;;0.98;0.88;;;17.10;99.90;;;;;;5153321;27;20733;-61
2023/08/30 10:29:23;;;;;;;0.35;0.35;;;16.80;99.90;;;;;;5153182;27;20505;-62
2023/08/30 10:31:49;;;;;;;1.40;0.93;;;16.90;99.90;;;;;;5153432;27;20072;-62
2023/08/30 10:34:16;;;;;;;0.80;0.80;;;17.20;99.90;;;;;;5153195;27;20107;-62
2023/08/30 10:36:43;;;;;;;0.63;0.63;;;17.20;99.90;;;;;;5153214;27;20103;-62
2023/08/30 10:39:13;;;;;;;0.90;0.90;;;17.10;99.90;;;;;;5153145;27;20046;-62
2023/08/30 10:41:55;;;;;;;1.52;0.50;;;17.00;99.90;;;;;;5134688;27;20051;-61
2023/08/30 10:44:22;;;;;;;0.47;0.47;;;17.10;99.90;;;;;;5153148;27;20088;-63
2023/08/30 10:46:53;;;;;;;2.97;1.30;;;16.70;99.90;;;;;;5152804;27;20482;-62
2023/08/30 10:49:19;;;;;;;2.70;1.02;;;17.00;99.90;;;;;;5152739;27;20510;-63
2023/08/30 10:51:47;;;;;;;0.73;0.73;;;16.80;99.90;;;;;;5152951;27;20057;-63
2023/08/30 10:54:17;;;;;;;0.30;0.30;;;16.60;99.90;;;;;;5156664;27;20091;-62
2023/08/30 10:56:52;;;;;;;0.35;0.35;;;16.90;99.90;;;;;;5157150;27;20050;-62
2023/08/30 10:59:19;;;;;;;1.15;0.98;;;16.90;99.90;;;;;;5157190;27;20059;-62
2023/08/30 11:01:47;;;;;;;0.65;0.65;;;16.70;99.90;;;;;;5156955;27;20042;-61
2023/08/30 11:04:15;;;;;;;0.50;0.47;;;16.60;99.90;;;;;;5156881;27;20043;-62
2023/08/30 11:06:45;;;;;;;0.47;0.47;;;17.10;99.90;;;;;;5156559;27;20510;-63
2023/08/30 11:09:21;;;;;;;0.47;0.47;;;16.90;99.90;;;;;;5156678;27;20059;-61
2023/08/30 11:11:48;;;;;;;0.43;0.43;;;17.20;99.90;;;;;;5156937;27;20087;-62
2023/08/30 11:14:14;;;;;;;0.47;0.47;;;17.10;99.90;;;;;;5156694;27;20050;-62
2023/08/30 11:16:40;;;;;;;0.32;0.32;;;17.30;99.90;;;;;;5157086;27;20160;-61
2023/08/30 11:19:07;;;;;;;0.35;0.35;;;17.40;99.90;;;;;;5156679;27;20137;-61
2023/08/30 11:21:42;;;;;;;0.60;0.45;;;16.90;99.90;;;;;;5156596;27;20050;-61
2023/08/30 11:24:08;;;;;;;1.35;1.25;;;17.30;99.90;;;;;;5156463;27;20042;-62
2023/08/30 11:26:34;;;;;;;0.75;0.75;;;17.10;99.90;;;;;;5156492;27;20043;-63
2023/08/30 11:29:09;;;;;;;0.60;0.60;;;16.90;99.90;;;;;;5156362;27;20054;-65
2023/08/30 11:31:35;;;;;;;0.52;0.52;;;16.90;99.90;;;;;;5156446;27;20062;-63
2023/08/30 11:34:01;;;;;;;0.70;0.70;;;17.00;99.90;;;;;;5156426;27;20039;-62
2023/08/30 11:36:32;;;;;;;8.68;0.45;;;17.00;99.90;;;;;;5156283;27;20050;-62
2023/08/30 11:38:58;;;;;;;0.98;0.63;;;17.00;99.90;;;;;;5156256;27;20057;-62
2023/08/30 11:41:25;;;;;;;0.45;0.45;;;17.00;99.90;;;;;;5155866;27;20046;-61
2023/08/30 11:43:51;;;;;;;0.45;0.45;;;17.20;99.90;;;;;;5156106;27;20053;-62
2023/08/30 11:46:18;;;;;;;0.30;0.30;;;17.00;99.90;;;;;;5156156;27;20050;-62
2023/08/30 11:48:45;;;;;;;0.70;0.63;;;17.40;99.90;;;;;;5156240;27;20050;-61
2023/08/30 11:51:11;;;;;;;0.28;0.28;;;17.40;99.90;;;;;;5156299;27;20046;-62
2023/08/30 11:53:38;;;;;;;1.70;0.80;;;17.20;99.90;;;;;;5156045;27;20075;-63
2023/08/30 11:56:06;;;;;;;1.15;0.73;;;17.10;99.90;;;;;;5155863;27;20047;-62
2023/08/30 11:58:35;;;;;;;0.50;0.50;;;17.10;99.90;;;;;;5155895;27;20121;-62
2023/08/30 12:01:04;;;;;;;0.40;0.40;;;17.20;99.90;;;;;;5155753;27;20082;-62
2023/08/30 12:03:31;;;;;;;0.50;0.50;;;16.90;99.90;;;;;;5155400;27;20082;-66
2023/08/30 12:05:58;;;;;;;0.35;0.35;;;17.20;99.90;;;;;;5154395;27;20451;-62
2023/08/30 12:08:25;;;;;;;1.13;1.02;;;15.20;99.90;;;;;;5155237;27;20407;-64
2023/08/30 12:10:51;;;;;;;0.55;0.55;;;17.00;99.90;;;;;;5155350;27;20059;-62
2023/08/30 12:13:21;;;;;;;0.40;0.20;;;17.10;99.90;;;;;;5155518;27;20043;-62
2023/08/30 12:15:47;;;;;;;0.30;0.30;;;17.50;99.90;;;;;;5155490;27;20087;-62
2023/08/30 12:18:12;;;;;;;0.50;0.50;;;17.40;99.90;;;;;;5155323;27;20055;-62
2023/08/30 12:20:38;;;;;;;0.28;0.28;;;17.30;99.90;;;;;;5155432;27;20046;-63
2023/08/30 12:23:04;;;;;;;0.52;0.52;;;17.10;99.90;;;;;;5155413;27;20419;-62
2023/08/30 12:25:32;;;;;;;1.77;0.73;;;17.20;99.90;;;;;;5154941;27;20078;-62
2023/08/30 12:27:57;;;;;;;1.10;0.65;;;17.20;99.90;;;;;;5155310;27;20107;-62
2023/08/30 12:30:23;;;;;;;0.60;0.60;;;17.30;99.90;;;;;;5155206;27;20046;-61
2023/08/30 12:32:49;;;;;;;0.40;0.40;;;17.30;99.90;;;;;;5155248;27;20129;-62
2023/08/30 12:35:15;;;;;;;0.20;0.20;;;17.10;99.90;;;;;;5154761;27;20045;-62
2023/08/30 12:37:40;;;;;;;0.43;0.40;;;17.30;99.90;;;;;;5155011;27;20038;-64
2023/08/30 12:40:07;;;;;;;0.00;0.00;;;17.30;99.90;;;;;;5155077;27;20046;-62
2023/08/30 12:42:33;;;;;;;0.22;0.22;;;17.00;99.90;;;;;;5137467;27;20498;-62
2023/08/30 12:44:59;;;;;;;0.10;0.10;;;16.80;99.90;;;;;;5135821;27;20805;-61
2023/08/30 12:47:25;;;;;;;0.10;0.10;;;16.70;99.90;;;;;;5133777;27;20131;-61
2023/08/30 12:49:50;;;;;;;0.25;0.25;;;16.60;99.90;;;;;;5144615;27;20126;-65
2023/08/30 12:52:17;;;;;;;0.63;0.50;;;17.10;99.90;;;;;;5133682;27;20122;-61